createdAt,value
2022-12-03T00:00:15.350Z,8.90
2022-12-03T00:02:17.150Z,8.90
2022-12-03T00:04:18.896Z,8.90
2022-12-03T00:06:20.682Z,8.90
2022-12-03T00:08:22.326Z,8.90
2022-12-03T00:10:24.124Z,8.90
2022-12-03T00:12:25.956Z,8.90
2022-12-03T00:14:27.659Z,8.90
2022-12-03T00:16:29.526Z,8.90
2022-12-03T00:18:31.248Z,8.90
2022-12-03T00:20:32.999Z,8.90
2022-12-03T00:22:35.038Z,8.90
2022-12-03T00:24:36.782Z,8.90
2022-12-03T00:26:38.447Z,8.90
2022-12-03T00:28:40.096Z,8.90
2022-12-03T00:30:41.795Z,8.90
2022-12-03T00:32:43.555Z,8.90
2022-12-03T00:34:45.472Z,8.90
2022-12-03T00:36:47.215Z,8.90
2022-12-03T00:38:48.936Z,9.00
2022-12-03T00:40:50.654Z,8.90
2022-12-03T00:42:52.353Z,8.90
2022-12-03T00:44:54.558Z,8.90
2022-12-03T00:46:56.552Z,9.00
2022-12-03T00:48:58.277Z,8.90
2022-12-03T00:50:59.947Z,8.90
2022-12-03T00:53:01.619Z,8.90
2022-12-03T00:55:03.703Z,8.90
2022-12-03T00:57:05.392Z,8.90
2022-12-03T00:59:07.052Z,8.90
2022-12-03T01:01:08.739Z,8.90
2022-12-03T01:03:10.460Z,8.90
2022-12-03T01:05:12.185Z,8.90
2022-12-03T01:07:14.442Z,8.90
2022-12-03T01:09:16.202Z,8.90
2022-12-03T01:11:36.353Z,8.90
2022-12-03T01:13:38.016Z,8.90
2022-12-03T01:15:39.716Z,8.90
2022-12-03T01:17:41.588Z,9.00
2022-12-03T01:19:48.259Z,8.90
2022-12-03T01:21:51.322Z,8.90
2022-12-03T01:23:53.037Z,8.90
2022-12-03T01:25:54.686Z,8.90
2022-12-03T01:27:56.303Z,8.90
2022-12-03T01:29:57.991Z,8.90
2022-12-03T01:32:19.250Z,8.90
2022-12-03T01:34:36.913Z,8.90
2022-12-03T01:36:46.185Z,8.90
2022-12-03T01:38:48.847Z,8.90
2022-12-03T01:40:52.357Z,8.90
2022-12-03T01:42:54.935Z,9.00
2022-12-03T01:44:57.382Z,8.90
2022-12-03T01:47:01.275Z,9.00
2022-12-03T01:49:03.424Z,9.00
2022-12-03T01:51:05.474Z,8.90
2022-12-03T01:53:09.038Z,8.90
2022-12-03T01:55:13.648Z,9.00
2022-12-03T01:57:20.006Z,8.90
2022-12-03T01:59:23.086Z,8.90
2022-12-03T02:01:24.793Z,8.90
2022-12-03T02:03:26.546Z,9.00
2022-12-03T02:05:29.744Z,9.00
2022-12-03T02:07:33.059Z,9.00
2022-12-03T02:09:34.683Z,9.00
2022-12-03T02:11:38.739Z,8.90
2022-12-03T02:13:41.610Z,9.00
2022-12-03T02:15:43.331Z,9.00
2022-12-03T02:17:45.049Z,8.90
2022-12-03T02:19:46.839Z,9.00
2022-12-03T02:22:03.594Z,8.90
2022-12-03T02:24:15.088Z,8.90
2022-12-03T02:26:16.843Z,8.90
2022-12-03T02:28:18.571Z,8.90
2022-12-03T02:30:21.443Z,8.90
2022-12-03T02:32:23.498Z,8.90
2022-12-03T02:34:41.376Z,8.90
2022-12-03T02:36:43.105Z,8.90
2022-12-03T02:38:45.448Z,8.90
2022-12-03T02:40:49.095Z,8.90
2022-12-03T02:42:52.582Z,8.90
2022-12-03T02:44:54.715Z,8.90
2022-12-03T02:46:56.650Z,8.90
2022-12-03T02:48:58.840Z,8.90
2022-12-03T02:51:02.447Z,8.90
2022-12-03T02:53:05.822Z,8.90
2022-12-03T02:55:08.099Z,8.90
2022-12-03T02:57:09.880Z,8.90
2022-12-03T02:59:11.836Z,8.80
2022-12-03T03:01:15.358Z,8.80
2022-12-03T03:03:20.870Z,8.80
2022-12-03T03:05:23.730Z,8.80
2022-12-03T03:07:25.552Z,8.70
2022-12-03T03:09:27.267Z,8.70
2022-12-03T03:11:28.939Z,8.70
2022-12-03T03:13:32.262Z,8.70
2022-12-03T03:15:35.690Z,8.70
2022-12-03T03:17:37.759Z,8.70
2022-12-03T03:19:39.389Z,8.70
2022-12-03T03:21:41.191Z,8.60
2022-12-03T03:23:44.169Z,8.60
2022-12-03T03:26:06.077Z,8.60
2022-12-03T03:28:07.932Z,8.60
2022-12-03T03:30:11.686Z,8.60
2022-12-03T03:32:13.395Z,8.60
2022-12-03T03:34:16.023Z,8.60
2022-12-03T03:36:18.182Z,8.60
2022-12-03T03:38:20.832Z,8.60
2022-12-03T03:40:22.506Z,8.60
2022-12-03T03:42:24.396Z,8.60
2022-12-03T03:44:26.240Z,8.60
2022-12-03T03:46:28.683Z,8.60
2022-12-03T03:48:30.758Z,8.60
2022-12-03T03:50:32.682Z,8.60
2022-12-03T03:52:34.651Z,8.70
2022-12-03T03:54:36.586Z,8.60
2022-12-03T03:56:38.384Z,8.70
2022-12-03T03:58:40.266Z,8.70
2022-12-03T04:00:45.399Z,8.60
2022-12-03T04:02:47.093Z,8.70
2022-12-03T04:04:48.852Z,8.60
2022-12-03T04:06:50.471Z,8.60
2022-12-03T04:08:52.081Z,8.60
2022-12-03T04:11:12.564Z,8.60
2022-12-03T04:13:14.188Z,8.60
2022-12-03T04:15:15.803Z,8.70
2022-12-03T04:17:17.400Z,8.60
2022-12-03T04:19:19.053Z,8.70
2022-12-03T04:21:40.502Z,8.70
2022-12-03T04:23:42.162Z,8.70
2022-12-03T04:26:02.446Z,8.70
2022-12-03T04:28:22.580Z,8.70
2022-12-03T04:30:24.438Z,8.70
2022-12-03T04:32:44.751Z,8.70
2022-12-03T04:35:04.947Z,8.60
2022-12-03T04:37:06.675Z,8.60
2022-12-03T04:39:08.314Z,8.60
2022-12-03T04:41:09.957Z,8.60
2022-12-03T04:43:13.015Z,8.60
2022-12-03T04:45:14.657Z,8.60
2022-12-03T04:47:18.085Z,8.50
2022-12-03T04:49:19.743Z,8.50
2022-12-03T04:51:21.343Z,8.50
2022-12-03T04:53:22.944Z,8.50
2022-12-03T04:55:24.573Z,8.50
2022-12-03T04:57:26.160Z,8.50
2022-12-03T04:59:27.780Z,8.50
2022-12-03T05:01:29.491Z,8.40
2022-12-03T05:03:31.182Z,8.40
2022-12-03T05:05:32.806Z,8.50
2022-12-03T05:07:34.504Z,8.40
2022-12-03T05:09:36.250Z,8.40
2022-12-03T05:11:38.213Z,8.40
2022-12-03T05:13:39.824Z,8.40
2022-12-03T05:15:41.471Z,8.40
2022-12-03T05:17:43.095Z,8.30
2022-12-03T05:20:03.451Z,8.30
2022-12-03T05:22:05.071Z,8.30
2022-12-03T05:24:06.809Z,8.20
2022-12-03T05:26:08.475Z,8.20
2022-12-03T05:28:10.159Z,8.20
2022-12-03T05:30:11.937Z,8.20
2022-12-03T05:32:13.542Z,8.20
2022-12-03T05:34:15.180Z,8.10
2022-12-03T05:36:17.425Z,8.10
2022-12-03T05:38:19.080Z,8.10
2022-12-03T05:40:20.992Z,8.10
2022-12-03T05:42:41.240Z,8.10
2022-12-03T05:44:42.874Z,8.00
2022-12-03T05:46:44.544Z,8.00
2022-12-03T05:48:46.216Z,8.00
2022-12-03T05:50:47.875Z,8.00
2022-12-03T05:52:49.827Z,7.90
2022-12-03T05:54:51.582Z,7.90
2022-12-03T05:56:53.424Z,7.90
2022-12-03T05:58:55.087Z,7.90
2022-12-03T06:00:56.707Z,7.90
2022-12-03T06:02:58.544Z,7.90
2022-12-03T06:05:00.280Z,7.90
2022-12-03T06:07:01.878Z,7.90
2022-12-03T06:09:03.811Z,7.80
2022-12-03T06:11:05.571Z,7.80
2022-12-03T06:13:07.222Z,7.80
2022-12-03T06:15:10.279Z,7.80
2022-12-03T06:17:11.881Z,7.80
2022-12-03T06:19:13.522Z,7.80
2022-12-03T06:21:15.156Z,7.80
2022-12-03T06:23:16.775Z,7.80
2022-12-03T06:25:18.434Z,7.70
2022-12-03T06:27:20.110Z,7.70
2022-12-03T06:29:21.754Z,7.70
2022-12-03T06:31:23.417Z,7.70
2022-12-03T06:33:25.088Z,7.70
2022-12-03T06:35:26.735Z,7.70
2022-12-03T06:37:28.400Z,7.70
2022-12-03T06:39:30.046Z,7.70
2022-12-03T06:41:31.658Z,7.70
2022-12-03T06:43:33.424Z,7.70
2022-12-03T06:45:35.082Z,7.70
2022-12-03T06:47:36.696Z,7.70
2022-12-03T06:49:38.374Z,7.70
2022-12-03T06:51:40.580Z,7.80
2022-12-03T06:53:42.226Z,7.70
2022-12-03T06:55:43.914Z,7.80
2022-12-03T06:57:45.584Z,7.80
2022-12-03T06:59:47.227Z,7.80
2022-12-03T07:01:48.968Z,7.80
2022-12-03T07:03:50.676Z,7.70
2022-12-03T07:05:52.256Z,7.70
2022-12-03T07:07:55.291Z,7.70
2022-12-03T07:09:57.045Z,7.70
2022-12-03T07:11:58.674Z,7.70
2022-12-03T07:14:04.952Z,7.70
2022-12-03T07:16:07.497Z,7.70
2022-12-03T07:18:09.797Z,7.70
2022-12-03T07:20:11.610Z,7.70
2022-12-03T07:22:13.301Z,7.70
2022-12-03T07:24:14.970Z,7.70
2022-12-03T07:26:16.607Z,7.70
2022-12-03T07:28:18.231Z,7.70
2022-12-03T07:30:19.971Z,7.70
2022-12-03T07:32:21.631Z,7.70
2022-12-03T07:34:23.418Z,7.70
2022-12-03T07:36:25.114Z,7.60
2022-12-03T07:38:26.830Z,7.60
2022-12-03T07:40:28.477Z,7.60
2022-12-03T07:42:30.178Z,7.60
2022-12-03T07:44:31.949Z,7.60
2022-12-03T07:46:33.672Z,7.70
2022-12-03T07:48:35.306Z,7.70
2022-12-03T07:50:36.958Z,7.70
2022-12-03T07:52:38.613Z,7.70
2022-12-03T07:54:40.251Z,7.70
2022-12-03T07:56:42.476Z,7.70
2022-12-03T07:58:44.087Z,7.70
2022-12-03T08:00:45.845Z,7.70
2022-12-03T08:02:47.667Z,7.70
2022-12-03T08:04:49.361Z,7.70
2022-12-03T08:06:50.962Z,7.70
2022-12-03T08:08:52.606Z,7.70
2022-12-03T08:10:54.267Z,7.70
2022-12-03T08:12:58.027Z,7.80
2022-12-03T08:14:59.674Z,7.80
2022-12-03T08:17:01.371Z,7.80
2022-12-03T08:19:05.627Z,7.80
2022-12-03T08:21:10.211Z,7.80
2022-12-03T08:23:13.304Z,7.90
2022-12-03T08:25:17.653Z,7.90
2022-12-03T08:27:19.504Z,7.90
2022-12-03T08:29:21.251Z,7.90
2022-12-03T08:31:32.349Z,8.00
2022-12-03T08:33:35.917Z,8.00
2022-12-03T08:35:37.703Z,8.00
2022-12-03T08:37:39.847Z,8.00
2022-12-03T08:39:44.447Z,8.00
2022-12-03T08:42:13.890Z,8.10
2022-12-03T08:44:29.408Z,8.10
2022-12-03T08:46:31.061Z,8.10
2022-12-03T08:48:40.712Z,8.20
2022-12-03T08:50:46.447Z,8.20
2022-12-03T08:52:50.117Z,8.20
2022-12-03T08:54:53.504Z,8.20
2022-12-03T08:56:55.494Z,8.20
2022-12-03T08:59:15.005Z,8.20
2022-12-03T09:01:22.715Z,8.30
2022-12-03T09:03:24.671Z,8.30
2022-12-03T09:05:29.373Z,8.30
2022-12-03T09:07:31.103Z,8.40
2022-12-03T09:09:34.511Z,8.40
2022-12-03T09:11:36.551Z,8.40
2022-12-03T09:13:38.317Z,8.40
2022-12-03T09:15:39.974Z,8.40
2022-12-03T09:17:41.645Z,8.40
2022-12-03T09:19:46.265Z,8.40
2022-12-03T09:21:48.281Z,8.50
2022-12-03T09:23:50.169Z,8.50
2022-12-03T09:25:56.035Z,8.50
2022-12-03T09:27:58.190Z,8.50
2022-12-03T09:30:02.456Z,8.50
2022-12-03T09:32:05.245Z,8.50
2022-12-03T09:34:10.439Z,8.60
2022-12-03T09:36:18.827Z,8.60
2022-12-03T09:38:26.366Z,8.60
2022-12-03T09:40:29.656Z,8.60
2022-12-03T09:42:32.465Z,8.70
2022-12-03T09:44:36.529Z,8.70
2022-12-03T09:46:41.558Z,8.70
2022-12-03T09:48:44.130Z,8.80
2022-12-03T09:50:47.060Z,8.80
2022-12-03T09:52:57.535Z,9.00
2022-12-03T09:55:11.809Z,8.90
2022-12-03T09:57:17.626Z,8.90
2022-12-03T09:59:23.753Z,8.90
2022-12-03T10:01:30.092Z,8.90
2022-12-03T10:03:34.377Z,8.90
2022-12-03T10:05:55.429Z,9.00
2022-12-03T10:08:12.573Z,9.00
2022-12-03T10:10:21.883Z,9.00
2022-12-03T10:12:25.010Z,9.00
2022-12-03T10:14:27.071Z,9.00
2022-12-03T10:16:30.492Z,9.00
2022-12-03T10:18:39.818Z,9.00
2022-12-03T10:20:43.339Z,9.10
2022-12-03T10:22:45.204Z,9.10
2022-12-03T10:25:03.605Z,9.10
2022-12-03T10:27:23.327Z,9.10
2022-12-03T10:29:31.590Z,9.10
2022-12-03T10:31:35.664Z,9.10
2022-12-03T10:33:39.025Z,9.10
2022-12-03T10:35:43.914Z,9.20
2022-12-03T10:37:58.219Z,9.20
2022-12-03T10:40:01.101Z,9.20
2022-12-03T10:42:15.969Z,9.20
2022-12-03T10:44:17.732Z,9.20
2022-12-03T10:46:20.884Z,9.20
2022-12-03T10:48:27.453Z,9.20
2022-12-03T10:50:29.177Z,9.20
2022-12-03T10:52:30.831Z,9.20
2022-12-03T10:54:34.290Z,9.20
2022-12-03T10:56:35.967Z,9.20
2022-12-03T10:58:38.643Z,9.30
2022-12-03T11:00:40.293Z,9.30
2022-12-03T11:02:41.974Z,9.30
2022-12-03T11:04:43.669Z,9.30
2022-12-03T11:06:45.354Z,9.30
2022-12-03T11:08:54.627Z,9.30
2022-12-03T11:10:59.782Z,9.30
2022-12-03T11:13:30.573Z,9.40
2022-12-03T11:15:45.240Z,9.40
2022-12-03T11:17:51.557Z,9.40
2022-12-03T11:19:53.213Z,9.40
2022-12-03T11:22:05.104Z,9.40
2022-12-03T11:24:15.851Z,9.40
2022-12-03T11:26:37.570Z,9.40
2022-12-03T11:28:59.477Z,9.40
2022-12-03T11:31:02.640Z,9.30
2022-12-03T11:33:04.490Z,9.30
2022-12-03T11:35:13.213Z,9.30
2022-12-03T11:37:14.887Z,9.30
2022-12-03T11:39:36.496Z,9.40
2022-12-03T11:41:38.244Z,9.30
2022-12-03T11:43:51.864Z,9.40
2022-12-03T11:45:53.596Z,9.40
2022-12-03T11:47:58.446Z,9.40
2022-12-03T11:50:00.252Z,9.40
2022-12-03T11:52:11.807Z,9.40
2022-12-03T11:54:15.847Z,9.50
2022-12-03T11:56:23.660Z,9.50
2022-12-03T11:58:29.574Z,9.50
2022-12-03T12:00:31.794Z,9.50
2022-12-03T12:02:33.968Z,9.50
2022-12-03T12:04:37.951Z,9.50
2022-12-03T12:06:43.520Z,9.50
2022-12-03T12:08:47.919Z,9.60
2022-12-03T12:10:49.719Z,9.60
2022-12-03T12:12:55.161Z,9.60
2022-12-03T12:14:57.568Z,9.70
2022-12-03T12:17:03.164Z,9.60
2022-12-03T12:19:23.440Z,9.60
2022-12-03T12:21:43.410Z,9.60
2022-12-03T12:23:45.253Z,9.60
2022-12-03T12:25:52.453Z,9.60
2022-12-03T12:27:55.787Z,9.60
2022-12-03T12:29:58.702Z,9.60
2022-12-03T12:32:06.718Z,9.60
2022-12-03T12:34:11.735Z,9.60
2022-12-03T12:36:16.546Z,9.70
2022-12-03T12:38:20.038Z,9.70
2022-12-03T12:40:26.854Z,9.70
2022-12-03T12:42:33.079Z,9.70
2022-12-03T12:44:36.890Z,9.70
2022-12-03T12:46:47.594Z,9.70
2022-12-03T12:48:49.769Z,9.60
2022-12-03T12:53:50.047Z,9.70
2022-12-03T12:55:54.681Z,9.70
2022-12-03T12:58:00.021Z,9.70
2022-12-03T13:00:02.429Z,9.70
2022-12-03T13:02:24.142Z,9.70
2022-12-03T13:04:27.356Z,9.70
2022-12-03T13:06:30.725Z,9.80
2022-12-03T13:08:44.116Z,9.80
2022-12-03T13:10:45.864Z,9.80
2022-12-03T13:12:47.644Z,9.80
2022-12-03T13:14:51.967Z,9.80
2022-12-03T13:16:55.115Z,9.80
2022-12-03T13:18:57.639Z,9.70
2022-12-03T13:20:59.556Z,9.70
2022-12-03T13:23:05.805Z,9.70
2022-12-03T13:25:50.509Z,9.70
2022-12-03T13:27:47.807Z,9.70
2022-12-03T13:30:09.773Z,9.70
2022-12-03T13:32:13.827Z,9.70
2022-12-03T13:34:31.240Z,9.70
2022-12-03T13:36:38.916Z,9.70
2022-12-03T13:38:40.594Z,9.70
2022-12-03T13:40:42.556Z,9.70
2022-12-03T13:42:48.205Z,9.70
2022-12-03T13:44:50.016Z,9.80
2022-12-03T13:46:51.782Z,9.70
2022-12-03T13:48:57.377Z,9.70
2022-12-03T13:51:11.126Z,9.70
2022-12-03T13:53:12.801Z,9.70
2022-12-03T13:55:22.618Z,9.70
2022-12-03T13:57:24.408Z,9.70
2022-12-03T13:59:26.565Z,9.70
2022-12-03T14:01:28.353Z,9.70
2022-12-03T14:03:30.135Z,9.70
2022-12-03T14:05:31.926Z,9.70
2022-12-03T14:07:33.643Z,9.70
2022-12-03T14:09:35.358Z,9.70
2022-12-03T14:11:55.601Z,9.70
2022-12-03T14:13:57.356Z,9.70
2022-12-03T14:15:59.185Z,9.60
2022-12-03T14:18:00.948Z,9.60
2022-12-03T14:20:03.835Z,9.60
2022-12-03T14:22:07.949Z,9.60
2022-12-03T14:24:09.727Z,9.60
2022-12-03T14:26:11.509Z,9.60
2022-12-03T14:28:13.255Z,9.60
2022-12-03T14:30:15.101Z,9.60
2022-12-03T14:32:17.159Z,9.60
2022-12-03T14:34:18.904Z,9.60
2022-12-03T14:36:20.829Z,9.60
2022-12-03T14:38:22.597Z,9.70
2022-12-03T14:40:24.333Z,9.60
2022-12-03T14:42:26.097Z,9.60
2022-12-03T14:44:27.749Z,9.60
2022-12-03T14:46:31.347Z,9.60
2022-12-03T14:48:32.980Z,9.60
2022-12-03T14:50:34.631Z,9.60
2022-12-03T14:52:36.488Z,9.60
2022-12-03T14:54:39.180Z,9.60
2022-12-03T14:56:40.860Z,9.60
2022-12-03T14:58:42.672Z,9.60
2022-12-03T15:00:44.438Z,9.60
2022-12-03T15:02:46.181Z,9.60
2022-12-03T15:04:47.982Z,9.60
2022-12-03T15:06:49.746Z,9.60
2022-12-03T15:08:51.421Z,9.60
2022-12-03T15:10:53.093Z,9.60
2022-12-03T15:12:54.767Z,9.60
2022-12-03T15:14:56.580Z,9.60
2022-12-03T15:16:58.474Z,9.70
2022-12-03T15:19:00.493Z,9.70
2022-12-03T15:21:03.266Z,9.70
2022-12-03T15:23:07.851Z,9.60
2022-12-03T15:25:12.935Z,9.70
2022-12-03T15:27:14.648Z,9.70
2022-12-03T15:29:16.406Z,9.70
2022-12-03T15:31:18.210Z,9.60
2022-12-03T15:33:19.953Z,9.60
2022-12-03T15:35:21.621Z,9.60
2022-12-03T15:37:27.446Z,9.70
2022-12-03T15:39:29.614Z,9.70
2022-12-03T15:41:31.492Z,9.60
2022-12-03T15:43:33.166Z,9.70
2022-12-03T15:45:34.939Z,9.70
2022-12-03T15:47:36.618Z,9.70
2022-12-03T15:49:38.315Z,9.70
2022-12-03T15:51:40.097Z,9.70
2022-12-03T15:53:41.933Z,9.70
2022-12-03T15:55:43.665Z,9.60
2022-12-03T15:57:45.459Z,9.70
2022-12-03T15:59:47.163Z,9.70
2022-12-03T16:01:48.869Z,9.70
2022-12-03T16:03:50.692Z,9.70
2022-12-03T16:05:52.401Z,9.70
2022-12-03T16:07:54.188Z,9.70
2022-12-03T16:09:57.061Z,9.60
2022-12-03T16:11:58.928Z,9.60
2022-12-03T16:14:00.608Z,9.60
2022-12-03T16:16:02.455Z,9.70
2022-12-03T16:18:04.251Z,9.60
2022-12-03T16:20:06.799Z,9.60
2022-12-03T16:22:08.664Z,9.60
2022-12-03T16:24:10.501Z,9.60
2022-12-03T16:26:12.282Z,9.60
2022-12-03T16:28:14.046Z,9.60
2022-12-03T16:30:15.956Z,9.50
2022-12-03T16:32:17.720Z,9.60
2022-12-03T16:34:19.622Z,9.50
2022-12-03T16:36:22.136Z,9.50
2022-12-03T16:38:25.611Z,9.50
2022-12-03T16:40:27.377Z,9.50
2022-12-03T16:42:31.337Z,9.50
2022-12-03T16:44:43.728Z,9.50
2022-12-03T16:46:45.980Z,9.50
2022-12-03T16:48:49.036Z,9.50
2022-12-03T16:50:50.746Z,9.50
2022-12-03T16:52:52.956Z,9.50
2022-12-03T16:54:54.640Z,9.50
2022-12-03T16:56:56.416Z,9.50
2022-12-03T16:58:58.068Z,9.40
2022-12-03T17:00:59.798Z,9.40
2022-12-03T17:03:01.601Z,9.50
2022-12-03T17:05:03.545Z,9.40
2022-12-03T17:07:05.280Z,9.40
2022-12-03T17:09:06.993Z,9.40
2022-12-03T17:11:08.827Z,9.40
2022-12-03T17:13:11.054Z,9.40
2022-12-03T17:15:12.932Z,9.40
2022-12-03T17:17:25.419Z,9.40
2022-12-03T17:19:30.184Z,9.40
2022-12-03T17:21:34.830Z,9.40
2022-12-03T17:23:36.874Z,9.40
2022-12-03T17:25:38.570Z,9.40
2022-12-03T17:28:01.264Z,9.40
2022-12-03T17:30:03.658Z,9.40
2022-12-03T17:32:05.561Z,9.40
2022-12-03T17:34:07.268Z,9.40
2022-12-03T17:36:09.105Z,9.30
2022-12-03T17:38:11.169Z,9.30
2022-12-03T17:40:13.810Z,9.30
2022-12-03T17:42:15.438Z,9.30
2022-12-03T17:44:21.021Z,9.30
2022-12-03T17:46:23.230Z,9.30
2022-12-03T17:48:25.128Z,9.30
2022-12-03T17:50:26.848Z,9.30
2022-12-03T17:52:28.577Z,9.30
2022-12-03T17:54:55.164Z,9.30
2022-12-03T17:56:52.498Z,9.20
2022-12-03T17:58:54.162Z,9.40
2022-12-03T18:01:00.461Z,9.30
2022-12-03T18:03:04.014Z,9.30
2022-12-03T18:05:05.797Z,9.30
2022-12-03T18:07:07.494Z,9.30
2022-12-03T18:09:09.367Z,9.30
2022-12-03T18:11:11.072Z,9.30
2022-12-03T18:13:12.796Z,9.30
2022-12-03T18:15:14.547Z,9.20
2022-12-03T18:17:16.266Z,9.20
2022-12-03T18:19:17.948Z,9.20
2022-12-03T18:21:19.866Z,9.20
2022-12-03T18:23:21.544Z,9.20
2022-12-03T18:25:23.256Z,9.10
2022-12-03T18:27:25.032Z,9.20
2022-12-03T18:29:26.789Z,9.20
2022-12-03T18:31:28.525Z,9.20
2022-12-03T18:33:30.225Z,9.20
2022-12-03T18:35:32.001Z,9.20
2022-12-03T18:37:33.899Z,9.20
2022-12-03T18:39:36.535Z,9.20
2022-12-03T18:41:38.235Z,9.30
2022-12-03T18:43:41.083Z,9.30
2022-12-03T18:45:42.959Z,9.30
2022-12-03T18:47:44.955Z,9.30
2022-12-03T18:49:46.658Z,9.30
2022-12-03T18:51:48.657Z,9.30
2022-12-03T18:53:51.536Z,9.30
2022-12-03T18:55:53.271Z,9.30
2022-12-03T18:57:54.955Z,9.30
2022-12-03T18:59:56.873Z,9.30
2022-12-03T19:01:58.870Z,9.20
2022-12-03T19:04:00.657Z,9.20
2022-12-03T19:06:02.358Z,9.20
2022-12-03T19:08:04.575Z,9.20
2022-12-03T19:10:06.783Z,9.20
2022-12-03T19:12:14.279Z,9.20
2022-12-03T19:14:16.431Z,9.20
2022-12-03T19:16:18.276Z,9.30
2022-12-03T19:18:20.042Z,9.20
2022-12-03T19:20:21.727Z,9.20
2022-12-03T19:22:23.805Z,9.20
2022-12-03T19:24:25.813Z,9.20
2022-12-03T19:26:27.749Z,9.30
2022-12-03T19:28:30.619Z,9.20
2022-12-03T19:30:32.376Z,9.40
2022-12-03T19:32:34.432Z,9.20
2022-12-03T19:34:36.211Z,9.20
2022-12-03T19:36:37.873Z,9.20
2022-12-03T19:38:39.681Z,9.20
2022-12-03T19:40:41.413Z,9.20
2022-12-03T19:42:43.088Z,9.20
2022-12-03T19:44:44.844Z,9.20
2022-12-03T19:46:48.824Z,9.20
2022-12-03T19:48:50.598Z,9.20
2022-12-03T19:51:13.288Z,9.20
2022-12-03T19:53:14.738Z,9.20
2022-12-03T19:55:19.487Z,9.20
2022-12-03T19:57:23.705Z,9.20
2022-12-03T19:59:25.781Z,9.20
2022-12-03T20:01:30.691Z,9.20
2022-12-03T20:03:32.517Z,9.20
2022-12-03T20:05:38.312Z,9.20
2022-12-03T20:07:40.012Z,9.20
2022-12-03T20:09:41.863Z,9.20
2022-12-03T20:11:44.567Z,9.20
2022-12-03T20:13:47.288Z,9.20
2022-12-03T20:15:48.973Z,9.20
2022-12-03T20:17:50.630Z,9.20
2022-12-03T20:19:52.544Z,9.20
2022-12-03T20:21:59.052Z,9.20
2022-12-03T20:24:04.489Z,9.20
2022-12-03T20:26:10.324Z,9.20
2022-12-03T20:28:12.084Z,9.20
2022-12-03T20:30:13.859Z,9.20
2022-12-03T20:32:15.797Z,9.20
2022-12-03T20:34:17.727Z,9.20
2022-12-03T20:36:20.917Z,9.30
2022-12-03T20:38:23.652Z,9.20
2022-12-03T20:40:30.892Z,9.20
2022-12-03T20:42:32.655Z,9.20
2022-12-03T20:44:34.399Z,9.20
2022-12-03T20:46:36.353Z,9.20
2022-12-03T20:48:38.804Z,9.30
2022-12-03T20:50:40.894Z,9.20
2022-12-03T20:52:57.678Z,9.20
2022-12-03T20:55:04.567Z,9.20
2022-12-03T20:57:06.403Z,9.20
2022-12-03T20:59:10.354Z,9.20
2022-12-03T21:01:15.933Z,9.20
2022-12-03T21:03:18.145Z,9.10
2022-12-03T21:05:20.106Z,9.10
2022-12-03T21:07:23.959Z,9.10
2022-12-03T21:09:25.800Z,9.10
2022-12-03T21:11:29.787Z,9.10
2022-12-03T21:13:32.590Z,9.10
2022-12-03T21:15:34.529Z,9.10
2022-12-03T21:17:36.332Z,9.10
2022-12-03T21:19:38.207Z,9.10
2022-12-03T21:21:39.994Z,9.10
2022-12-03T21:23:44.696Z,9.10
2022-12-03T21:25:46.504Z,9.10
2022-12-03T21:27:48.253Z,9.10
2022-12-03T21:29:50.109Z,9.10
2022-12-03T21:31:51.933Z,9.10
2022-12-03T21:33:54.373Z,9.10
2022-12-03T21:35:56.689Z,9.10
2022-12-03T21:37:58.456Z,9.10
2022-12-03T21:40:00.271Z,9.10
2022-12-03T21:42:18.729Z,9.10
2022-12-03T21:44:23.854Z,9.10
2022-12-03T21:47:10.666Z,9.10
2022-12-03T21:48:49.700Z,9.10
2022-12-03T21:51:01.862Z,9.10
2022-12-03T21:53:03.579Z,9.10
2022-12-03T21:55:06.271Z,9.10
2022-12-03T21:57:08.091Z,9.10
2022-12-03T21:59:09.910Z,9.10
2022-12-03T22:01:16.681Z,9.10
2022-12-03T22:03:18.456Z,9.00
2022-12-03T22:05:20.186Z,9.00
2022-12-03T22:07:21.941Z,9.00
2022-12-03T22:09:26.684Z,9.00
2022-12-03T22:11:28.789Z,9.00
2022-12-03T22:13:30.492Z,9.00
2022-12-03T22:15:32.351Z,8.90
2022-12-03T22:17:35.530Z,9.00
2022-12-03T22:19:37.237Z,8.90
2022-12-03T22:21:39.001Z,8.90
2022-12-03T22:23:40.937Z,8.90
2022-12-03T22:25:42.629Z,8.90
2022-12-03T22:27:44.375Z,8.90
2022-12-03T22:29:46.200Z,8.90
2022-12-03T22:31:47.997Z,8.90
2022-12-03T22:33:49.906Z,8.80
2022-12-03T22:35:58.661Z,8.80
2022-12-03T22:38:00.342Z,8.80
2022-12-03T22:40:02.167Z,8.80
2022-12-03T22:42:03.955Z,8.80
2022-12-03T22:44:05.735Z,8.80
2022-12-03T22:46:10.445Z,8.80
2022-12-03T22:48:12.546Z,8.80
2022-12-03T22:50:14.232Z,8.80
2022-12-03T22:52:16.031Z,8.80
2022-12-03T22:54:23.554Z,8.80
2022-12-03T22:56:26.427Z,8.80
2022-12-03T22:58:28.444Z,8.80
2022-12-03T23:00:31.973Z,8.80
2022-12-03T23:02:33.786Z,8.80
2022-12-03T23:04:35.483Z,8.80
2022-12-03T23:06:37.450Z,8.80
2022-12-03T23:08:39.240Z,8.80
2022-12-03T23:10:42.266Z,8.80
2022-12-03T23:12:43.997Z,8.80
2022-12-03T23:14:45.655Z,8.80
2022-12-03T23:16:47.427Z,8.80
2022-12-03T23:18:49.355Z,8.80
2022-12-03T23:20:52.310Z,8.80
2022-12-03T23:22:55.127Z,8.80
2022-12-03T23:24:56.876Z,8.80
2022-12-03T23:26:59.695Z,8.80
2022-12-03T23:29:02.581Z,8.80
2022-12-03T23:31:05.204Z,8.80
2022-12-03T23:33:07.056Z,8.80
2022-12-03T23:35:09.101Z,8.80
2022-12-03T23:37:10.795Z,8.80
2022-12-03T23:39:12.457Z,8.80
2022-12-03T23:41:15.476Z,8.80
2022-12-03T23:43:17.197Z,8.80
2022-12-03T23:45:18.915Z,8.80
2022-12-03T23:47:20.743Z,8.80
2022-12-03T23:49:22.410Z,8.80
2022-12-03T23:51:24.632Z,8.70
2022-12-03T23:53:26.317Z,8.70
2022-12-03T23:55:27.984Z,8.70
2022-12-03T23:57:29.683Z,8.70
2022-12-03T23:59:31.343Z,8.70
